Banyan — WDE7243 — position and weather

sailwx.info

Track history (hours):
 
Tides and Currents Weather Stations Pressure Air Temp Water Temp Dewpoint Dewpoint Depression Visibility Wind Speed Wind Dir Waves Ship Positions

Banyan

Owner: Banyan Palm Beach LLC, Palm Beach, FL. More information available from US FCC via Universal Licensing System and Coast Guard Vessel Documentation Center.

Last reported at 2018-Jun-01 03:20 UTC. Time now 2018-Jun-18 05:32 UTC.
Position N 39°10' W 075°15'.
Warning: this ship's position is 17 days out of date.

Length 28 m.

Type: Pleasure craft. MMSI: 367390840.

Date/timePositionNaut miles runAvg speedWind from/ knotsBaromVisibWave heightAir tempDewpointWater temp
2018-Jun-01 03:20N 39°10' W 075°15'3 9.3
2018-Jun-01 02:59N 39°12' W 075°17'5 9.2
2018-Jun-01 02:30N 39°16' W 075°20'5 9.2
2018-Jun-01 02:01N 39°19' W 075°24'5 9.4
2018-Jun-01 01:30N 39°23' W 075°28'510.0
2018-Jun-01 01:00N 39°27' W 075°32'510.0
2018-Jun-01 00:29N 39°32' W 075°33'611.8
2018-May-31 23:59N 39°38' W 075°35'612.8
2018-May-31 23:30N 39°43' W 075°30'612.2
2018-May-31 23:00N 39°48' W 075°26'612.6
2018-May-31 22:30N 39°51' W 075°18'612.2
2018-May-31 22:00N 39°53' W 075°11'4 8.8
2018-May-31 21:30N 39°57' W 075°08'0 0.9
2018-May-31 20:59N 39°57' W 075°08'0 0.0
2018-May-31 20:29N 39°57' W 075°08'0 0.0
2018-May-31 19:59N 39°57' W 075°08'0 0.0
2018-May-31 19:29N 39°57' W 075°08'0 0.0
2018-May-31 18:59N 39°57' W 075°08'0 0.0
2018-May-31 18:29N 39°57' W 075°08'0 0.0
2018-May-31 18:00N 39°57' W 075°08'0 0.0
2018-May-31 17:27N 39°57' W 075°08'0 0.0
2018-May-31 17:00N 39°57' W 075°08'0 0.0
2018-May-31 16:29N 39°57' W 075°08'0 0.0
2018-May-31 16:00N 39°57' W 075°08'0 0.0
2018-May-31 15:30N 39°57' W 075°08'0 0.0
2018-May-31 15:00N 39°57' W 075°08'0 0.0
2018-May-31 14:30N 39°57' W 075°08'0 0.0
2018-May-31 14:00N 39°57' W 075°08'0 0.0
2018-May-31 13:30N 39°57' W 075°08'0 0.0
2018-May-31 13:00N 39°57' W 075°08'0 0.0
2018-May-31 12:30N 39°57' W 075°08'0 0.0
2018-May-31 12:00N 39°57' W 075°08'0 0.0
2018-May-31 11:30N 39°57' W 075°08'0 0.0
2018-May-31 11:00N 39°57' W 075°08'0 0.0
2018-May-31 10:30N 39°57' W 075°08'0 0.0
2018-May-31 10:00N 39°57' W 075°08'0 0.0
2018-May-31 09:30N 39°57' W 075°08'0 0.0
2018-May-31 09:00N 39°57' W 075°08'0 0.0
2018-May-31 08:27N 39°57' W 075°08'0 0.0
2018-May-31 08:00N 39°57' W 075°08'0 0.0
2018-May-31 07:27N 39°57' W 075°08'0 0.0
2018-May-31 07:00N 39°57' W 075°08'0 0.0
2018-May-31 06:30N 39°57' W 075°08'0 0.0
2018-May-31 05:57N 39°57' W 075°08'0 0.0
2018-May-31 05:30N 39°57' W 075°08'0 0.0
2018-May-31 05:00N 39°57' W 075°08'0 0.0
2018-May-31 04:30N 39°57' W 075°08'0 0.0
2018-May-31 04:00N 39°57' W 075°08'0 0.0
2018-May-31 03:30N 39°57' W 075°08'0 0.0
2018-May-31 03:00N 39°57' W 075°08'0 0.0
2018-May-31 02:30N 39°57' W 075°08'0 0.0
2018-May-31 02:00N 39°57' W 075°08'0 0.0
2018-May-31 01:30N 39°57' W 075°08'0 0.0
2018-May-31 01:00N 39°57' W 075°08'0 0.0
2018-May-31 00:30N 39°57' W 075°08'0 0.0
2018-May-31 00:00N 39°57' W 075°08'0 0.0
2018-May-30 23:30N 39°57' W 075°08'0 0.0
2018-May-30 23:00N 39°57' W 075°08'0 0.0
2018-May-30 22:30N 39°57' W 075°08'0 0.0
2018-May-30 22:00N 39°57' W 075°08'0 0.0
2018-May-30 21:30N 39°57' W 075°08'0 0.0
2018-May-30 21:00N 39°57' W 075°08'0 0.0
2018-May-30 20:30N 39°57' W 075°08'0 0.0
2018-May-30 20:00N 39°57' W 075°08'0 0.0
2018-May-30 19:30N 39°57' W 075°08'0 0.0
2018-May-30 19:00N 39°57' W 075°08'0 0.0
2018-May-30 18:30N 39°57' W 075°08'0 0.0
2018-May-30 17:54N 39°57' W 075°08'0 0.0
2018-May-30 17:30N 39°57' W 075°08'0 0.0
2018-May-30 17:00N 39°57' W 075°08'0 0.0
2018-May-30 16:30N 39°57' W 075°08'0 0.0
2018-May-30 16:00N 39°57' W 075°08'0 0.0
2018-May-30 15:30N 39°57' W 075°08'0 0.0
2018-May-30 15:00N 39°57' W 075°08'0 0.0
2018-May-30 14:30N 39°57' W 075°08'0 0.0
2018-May-30 14:00N 39°57' W 075°08'0 0.0
2018-May-30 13:30N 39°57' W 075°08'0 0.0
2018-May-30 13:00N 39°57' W 075°08'0 0.0
2018-May-30 12:30N 39°57' W 075°08'0 0.0
2018-May-30 12:00N 39°57' W 075°08'0 0.0
2018-May-30 11:30N 39°57' W 075°08'0 0.0
2018-May-30 11:00N 39°57' W 075°08'0 0.0
2018-May-30 10:24N 39°57' W 075°08'0 0.0
2018-May-30 10:00N 39°57' W 075°08'0 0.0
2018-May-30 09:30N 39°57' W 075°08'0 0.0
2018-May-30 09:00N 39°57' W 075°08'0 0.0
2018-May-30 08:30N 39°57' W 075°08'0 0.0
2018-May-30 08:00N 39°57' W 075°08'0 0.0
2018-May-30 07:30N 39°57' W 075°08'0 0.0
2018-May-30 07:00N 39°57' W 075°08'0 0.0
2018-May-30 06:30N 39°57' W 075°08'0 0.0
2018-May-30 06:00N 39°57' W 075°08'0 0.0
2018-May-30 05:30N 39°57' W 075°08'0 0.0
2018-May-30 05:00N 39°57' W 075°08'0 0.0
2018-May-30 04:30N 39°57' W 075°08'0 0.0
2018-May-30 04:00N 39°57' W 075°08'0 0.0
2018-May-30 03:30N 39°57' W 075°08'0 0.0
2018-May-30 03:00N 39°57' W 075°08'0 0.0
2018-May-30 02:30N 39°57' W 075°08'0 0.0
2018-May-30 02:00N 39°57' W 075°08'0 0.0
2018-May-30 01:30N 39°57' W 075°08'0 0.0
2018-May-30 01:00N 39°57' W 075°08'0 0.0
2018-May-30 00:30N 39°57' W 075°08'0 0.0
2018-May-30 00:00N 39°57' W 075°08'0 0.0
2018-May-29 23:30N 39°57' W 075°08'0 0.0
2018-May-29 23:00N 39°57' W 075°08'0 0.0
2018-May-29 22:30N 39°57' W 075°08'0 0.0
2018-May-29 22:00N 39°57' W 075°08'0 0.0
2018-May-29 21:30N 39°57' W 075°08'0 0.0
2018-May-29 21:00N 39°57' W 075°08'0 0.0
2018-May-29 20:30N 39°57' W 075°08'0 0.0
2018-May-29 20:00N 39°57' W 075°08'0 0.0
2018-May-29 19:30N 39°57' W 075°08'0 0.0
2018-May-29 19:00N 39°57' W 075°08'0 0.0
2018-May-29 18:30N 39°57' W 075°08'0 0.0
2018-May-29 18:00N 39°57' W 075°08'0 0.0
2018-May-29 17:30N 39°57' W 075°08'0 0.0
2018-May-29 17:00N 39°57' W 075°08'0 0.0
2018-May-29 16:30N 39°57' W 075°08'0 0.0
2018-May-29 15:57N 39°57' W 075°08'0 0.0
2018-May-29 15:30N 39°57' W 075°08'0 0.0
2018-May-29 15:00N 39°57' W 075°08'0 0.0
2018-May-29 14:30N 39°57' W 075°08'0 0.0
2018-May-29 14:00N 39°57' W 075°08'0 0.0
2018-May-29 12:39N 39°57' W 075°08'0 0.0
2018-May-29 08:06N 39°57' W 075°08'0 0.0
2018-May-29 08:00N 39°57' W 075°08'0 0.0
2018-May-29 07:30N 39°57' W 075°08'0 0.0
2018-May-29 07:00N 39°57' W 075°08'0 0.0
2018-May-29 06:30N 39°57' W 075°08'0 0.0
2018-May-29 06:00N 39°57' W 075°08'0 0.0
2018-May-29 05:30N 39°57' W 075°08'0 0.0
2018-May-29 04:27N 39°57' W 075°08'0 0.0
2018-May-28 18:33N 39°57' W 075°08'0 0.1
2018-May-28 18:30N 39°57' W 075°08'0 0.0
2018-May-28 18:00N 39°57' W 075°08'0 0.0
2018-May-28 17:30N 39°57' W 075°08'0 0.0
2018-May-28 17:00N 39°57' W 075°08'0 0.0
2018-May-28 16:30N 39°57' W 075°08'0 0.0
2018-May-28 13:57N 39°57' W 075°08'0 0.0
2018-May-28 13:30N 39°57' W 075°08'0 0.0
2018-May-28 13:00N 39°57' W 075°08'0 0.0
2018-May-28 12:30N 39°57' W 075°08'0 0.0
2018-May-28 12:00N 39°57' W 075°08'0 0.0
2018-May-28 11:30N 39°57' W 075°08'0 0.0
2018-May-28 11:00N 39°57' W 075°08'0 0.0
2018-May-28 10:30N 39°57' W 075°08'0 0.0
2018-May-28 10:00N 39°57' W 075°08'0 0.0
2018-May-28 09:30N 39°57' W 075°08'0 0.0
2018-May-28 09:00N 39°57' W 075°08'0 0.0
2018-May-28 08:27N 39°57' W 075°08'0 0.0
2018-May-28 08:00N 39°57' W 075°08'0 0.0
2018-May-28 07:30N 39°57' W 075°08'0 0.0
2018-May-28 07:00N 39°57' W 075°08'0 0.0
2018-May-28 06:30N 39°57' W 075°08'0 0.0
2018-May-28 06:00N 39°57' W 075°08'0 0.0
2018-May-28 05:30N 39°57' W 075°08'0 0.0
2018-May-28 05:00N 39°57' W 075°08'0 0.0
2018-May-28 04:30N 39°57' W 075°08'0 0.0
2018-May-28 03:57N 39°57' W 075°08'0 0.0
2018-May-28 03:30N 39°57' W 075°08'0 0.0
2018-May-28 03:00N 39°57' W 075°08'0 0.0
2018-May-28 02:30N 39°57' W 075°08'0 0.0
2018-May-28 02:00N 39°57' W 075°08'0 0.0
2018-May-28 01:30N 39°57' W 075°08'0 0.0
2018-May-28 01:00N 39°57' W 075°08'0 0.0
2018-May-28 00:27N 39°57' W 075°08'0 0.0
2018-May-28 00:00N 39°57' W 075°08'0 0.0
2018-May-27 23:27N 39°57' W 075°08'0 0.0
2018-May-27 22:54N 39°57' W 075°08'0 0.0
2018-May-27 22:30N 39°57' W 075°08'0 0.0
2018-May-27 22:00N 39°57' W 075°08'0 0.0
2018-May-27 21:30N 39°57' W 075°08'0 0.0
2018-May-27 21:00N 39°57' W 075°08'0 0.0
2018-May-27 20:27N 39°57' W 075°08'0 0.0
2018-May-27 20:00N 39°57' W 075°08'0 0.0
2018-May-27 19:30N 39°57' W 075°08'0 0.0
2018-May-27 19:00N 39°57' W 075°08'0 0.0
2018-May-27 18:30N 39°57' W 075°08'0 0.0
2018-May-27 18:00N 39°57' W 075°08'0 0.0
2018-May-27 17:27N 39°57' W 075°08'0 0.0
2018-May-27 17:00N 39°57' W 075°08'0 0.0
2018-May-27 16:30N 39°57' W 075°08'0 0.0
2018-May-27 16:00N 39°57' W 075°08'0 0.0
2018-May-27 15:30N 39°57' W 075°08'0 0.0
2018-May-27 15:00N 39°57' W 075°08'0 0.0
2018-May-27 14:30N 39°57' W 075°08'0 0.0
2018-May-27 14:00N 39°57' W 075°08'0 0.0
2018-May-27 13:30N 39°57' W 075°08'0 0.0
2018-May-27 13:00N 39°57' W 075°08'0 0.0
2018-May-27 12:30N 39°57' W 075°08'0 0.0
2018-May-27 12:00N 39°57' W 075°08'0 0.0
2018-May-27 11:30N 39°57' W 075°08'0 0.0
2018-May-27 11:00N 39°57' W 075°08'0 0.0
2018-May-27 10:30N 39°57' W 075°08'0 0.0
2018-May-27 10:00N 39°57' W 075°08'0 0.0
2018-May-27 09:30N 39°57' W 075°08'0 0.0
2018-May-27 09:00N 39°57' W 075°08'0 0.0
2018-May-27 08:30N 39°57' W 075°08'0 0.0
2018-May-27 08:00N 39°57' W 075°08'0 0.0
2018-May-27 07:30N 39°57' W 075°08'0 0.0
2018-May-27 07:00N 39°57' W 075°08'0 0.0
2018-May-27 06:30N 39°57' W 075°08'0 0.0
2018-May-27 06:00N 39°57' W 075°08'0 0.0
2018-May-27 05:30N 39°57' W 075°08'0 0.0
2018-May-27 05:00N 39°57' W 075°08'0 0.0
2018-May-27 04:27N 39°57' W 075°08'0 0.0
2018-May-27 04:00N 39°57' W 075°08'0 0.0
2018-May-27 03:30N 39°57' W 075°08'0 0.0
2018-May-27 03:00N 39°57' W 075°08'0 0.0
2018-May-27 02:28N 39°57' W 075°08'0 0.0
2018-May-27 02:01N 39°57' W 075°08'0 0.0
2018-May-27 01:30N 39°57' W 075°08'0 0.0
2018-May-27 01:01N 39°57' W 075°08'0 0.0
2018-May-27 00:30N 39°57' W 075°08'0 0.0
2018-May-26 23:57N 39°57' W 075°08'0 0.0
2018-May-26 23:30N 39°57' W 075°08'0 0.0
2018-May-26 23:01N 39°57' W 075°08'0 0.0
2018-May-26 22:28N 39°57' W 075°08'0 0.0
2018-May-26 21:58N 39°57' W 075°08'0 0.0
2018-May-26 21:28N 39°57' W 075°08'0 0.0
2018-May-26 21:00N 39°57' W 075°08'0 0.0
2018-May-26 20:31N 39°57' W 075°08'0 0.0
2018-May-26 20:01N 39°57' W 075°08'0 0.0
2018-May-26 19:31N 39°57' W 075°08'0 0.0
2018-May-26 19:01N 39°57' W 075°08'0 0.0
2018-May-26 18:31N 39°57' W 075°08'0 0.0
2018-May-26 17:58N 39°57' W 075°08'0 0.0
2018-May-26 17:28N 39°57' W 075°08'0 0.0
2018-May-26 16:58N 39°57' W 075°08'0 0.0
2018-May-26 16:28N 39°57' W 075°08'0 0.0
2018-May-26 15:58N 39°57' W 075°08'0 0.0
2018-May-26 15:28N 39°57' W 075°08'0 0.0
2018-May-26 14:58N 39°57' W 075°08'0 0.0
2018-May-26 14:28N 39°57' W 075°08'0 0.0
2018-May-26 13:58N 39°57' W 075°08'0 0.0
2018-May-26 13:28N 39°57' W 075°08'0 0.0
2018-May-26 12:58N 39°57' W 075°08'0 0.0
2018-May-26 12:28N 39°57' W 075°08'0 0.0
2018-May-26 11:58N 39°57' W 075°08'0 0.0
2018-May-26 11:28N 39°57' W 075°08'0 0.0
2018-May-26 10:58N 39°57' W 075°08'0 0.0
2018-May-26 10:28N 39°57' W 075°08'0 0.0
2018-May-26 09:58N 39°57' W 075°08'0 0.0
2018-May-26 09:28N 39°57' W 075°08'0 0.0
2018-May-26 08:58N 39°57' W 075°08'0 0.0
2018-May-26 08:28N 39°57' W 075°08'0 0.0
2018-May-26 07:58N 39°57' W 075°08'0 0.0
2018-May-26 07:28N 39°57' W 075°08'0 0.0
2018-May-26 06:58N 39°57' W 075°08'0 0.0
2018-May-26 06:28N 39°57' W 075°08'0 0.0
2018-May-26 05:28N 39°57' W 075°08'0 0.0
2018-May-26 04:58N 39°57' W 075°08'0 0.0
2018-May-26 04:28N 39°57' W 075°08'0 0.0
2018-May-26 03:58N 39°57' W 075°08'0 0.0
2018-May-26 03:25N 39°57' W 075°08'0 0.0
2018-May-26 02:58N 39°57' W 075°08'0 0.0
2018-May-26 02:28N 39°57' W 075°08'0 0.0
2018-May-26 01:58N 39°57' W 075°08'0 0.0
2018-May-26 01:28N 39°57' W 075°08'0 0.0
2018-May-26 00:58N 39°57' W 075°08'0 0.0
2018-May-26 00:28N 39°57' W 075°08'0 0.0
2018-May-25 23:58N 39°57' W 075°08'0 0.0
2018-May-25 23:28N 39°57' W 075°08'0 0.0
2018-May-25 22:58N 39°57' W 075°08'0 0.0
2018-May-25 22:28N 39°57' W 075°08'0 0.0
2018-May-25 21:58N 39°57' W 075°08'0 0.0
2018-May-25 21:28N 39°57' W 075°08'0 0.0
2018-May-25 20:58N 39°57' W 075°08'0 0.0
2018-May-25 20:28N 39°57' W 075°08'0 0.0
2018-May-25 19:58N 39°57' W 075°08'0 0.0
2018-May-25 19:28N 39°57' W 075°08'0 0.0
2018-May-25 18:58N 39°57' W 075°08'0 0.0
2018-May-25 18:28N 39°57' W 075°08'0 0.0
2018-May-25 17:58N 39°57' W 075°08'0 0.0
2018-May-25 17:28N 39°57' W 075°08'0 0.0
2018-May-25 16:58N 39°57' W 075°08'0 0.0
2018-May-25 16:28N 39°57' W 075°08'0 0.0
2018-May-25 15:58N 39°57' W 075°08'3 7.4
2018-May-25 15:30N 39°54' W 075°08'5 9.2
2018-May-25 15:00N 39°52' W 075°13'5 9.9
2018-May-25 14:30N 39°51' W 075°20'510.5
2018-May-25 14:00N 39°48' W 075°25'510.1
2018-May-25 13:30N 39°44' W 075°29'510.8
2018-May-25 13:00N 39°39' W 075°33'5 9.5
2018-May-25 12:30N 39°35' W 075°33'4 8.9
2018-May-25 12:00N 39°33' W 075°39'510.2
2018-May-25 11:30N 39°32' W 075°45'3 5.1
2018-May-25 10:58N 39°32' W 075°49'0 0.0
2018-May-25 10:22N 39°32' W 075°49'0 0.0
2018-May-25 09:55N 39°32' W 075°49'0 0.0
2018-May-25 09:28N 39°32' W 075°49'0 0.0
2018-May-25 08:58N 39°32' W 075°49'0 0.0
2018-May-25 08:25N 39°32' W 075°49'0 0.0
2018-May-25 07:58N 39°32' W 075°49'0 0.0
2018-May-25 07:19N 39°32' W 075°49'0 0.0
2018-May-25 06:58N 39°32' W 075°49'0 0.0
2018-May-25 06:25N 39°32' W 075°49'0 0.0
2018-May-25 05:58N 39°32' W 075°49'0 0.0
2018-May-25 05:22N 39°32' W 075°49'0 0.0
2018-May-25 04:58N 39°32' W 075°49'0 0.0
2018-May-25 04:25N 39°32' W 075°49'0 0.0
2018-May-25 03:46N 39°32' W 075°49'0 0.0
2018-May-25 03:25N 39°32' W 075°49'0 0.0
2018-May-25 02:58N 39°32' W 075°49'0 0.0
2018-May-25 02:28N 39°32' W 075°49'0 0.0
2018-May-25 01:58N 39°32' W 075°49'0 0.0
2018-May-25 01:28N 39°32' W 075°49'0 0.0
2018-May-25 00:55N 39°32' W 075°49'0 0.0
2018-May-25 00:28N 39°32' W 075°49'0 0.0
2018-May-24 23:58N 39°32' W 075°49'0 0.0
2018-May-24 23:22N 39°32' W 075°49'0 0.0
2018-May-24 22:58N 39°32' W 075°49'0 0.0
2018-May-24 22:22N 39°32' W 075°49'0 0.0
2018-May-24 21:58N 39°32' W 075°49'0 0.0
2018-May-24 21:25N 39°32' W 075°49'0 0.0
2018-May-24 20:58N 39°32' W 075°49'0 0.0
2018-May-24 20:28N 39°32' W 075°49'0 0.0
2018-May-24 19:55N 39°32' W 075°49'0 0.0
2018-May-24 19:28N 39°32' W 075°49'0 0.0
2018-May-24 18:58N 39°32' W 075°49'2 3.3
2018-May-24 18:30N 39°32' W 075°51'48 5.0
2018-May-24 08:51N 38°47' W 076°13'0 0.0
2018-May-24 08:27N 38°47' W 076°13'57 1.3
2018-May-22 12:27N 37°50' W 076°03'  
Track history (hours):
 
Tides and Currents Weather Stations Pressure Air Temp Water Temp Dewpoint Dewpoint Depression Visibility Wind Speed Wind Dir Waves Ship Positions

Banyan

Owner: Banyan Palm Beach LLC, Palm Beach, FL. More information available from US FCC via Universal Licensing System and Coast Guard Vessel Documentation Center.

Last reported at 2018-Jun-01 03:20 UTC. Time now 2018-Jun-18 05:32 UTC.
Position N 39°10' W 075°15'.
Warning: this ship's position is 17 days out of date.

Length 28 m.

Type: Pleasure craft. MMSI: 367390840.

Date/timePositionNaut miles runAvg speedWind from/ knotsBaromVisibWave heightAir tempDewpointWater temp
2018-Jun-01 03:20N 39°10' W 075°15'3 9.3
2018-Jun-01 02:59N 39°12' W 075°17'5 9.2
2018-Jun-01 02:30N 39°16' W 075°20'5 9.2
2018-Jun-01 02:01N 39°19' W 075°24'5 9.4
2018-Jun-01 01:30N 39°23' W 075°28'510.0
2018-Jun-01 01:00N 39°27' W 075°32'510.0
2018-Jun-01 00:29N 39°32' W 075°33'611.8
2018-May-31 23:59N 39°38' W 075°35'612.8
2018-May-31 23:30N 39°43' W 075°30'612.2
2018-May-31 23:00N 39°48' W 075°26'612.6
2018-May-31 22:30N 39°51' W 075°18'612.2
2018-May-31 22:00N 39°53' W 075°11'4 8.8
2018-May-31 21:30N 39°57' W 075°08'0 0.9
2018-May-31 20:59N 39°57' W 075°08'0 0.0
2018-May-31 20:29N 39°57' W 075°08'0 0.0
2018-May-31 19:59N 39°57' W 075°08'0 0.0
2018-May-31 19:29N 39°57' W 075°08'0 0.0
2018-May-31 18:59N 39°57' W 075°08'0 0.0
2018-May-31 18:29N 39°57' W 075°08'0 0.0
2018-May-31 18:00N 39°57' W 075°08'0 0.0
2018-May-31 17:27N 39°57' W 075°08'0 0.0
2018-May-31 17:00N 39°57' W 075°08'0 0.0
2018-May-31 16:29N 39°57' W 075°08'0 0.0
2018-May-31 16:00N 39°57' W 075°08'0 0.0
2018-May-31 15:30N 39°57' W 075°08'0 0.0
2018-May-31 15:00N 39°57' W 075°08'0 0.0
2018-May-31 14:30N 39°57' W 075°08'0 0.0
2018-May-31 14:00N 39°57' W 075°08'0 0.0
2018-May-31 13:30N 39°57' W 075°08'0 0.0
2018-May-31 13:00N 39°57' W 075°08'0 0.0
2018-May-31 12:30N 39°57' W 075°08'0 0.0
2018-May-31 12:00N 39°57' W 075°08'0 0.0
2018-May-31 11:30N 39°57' W 075°08'0 0.0
2018-May-31 11:00N 39°57' W 075°08'0 0.0
2018-May-31 10:30N 39°57' W 075°08'0 0.0
2018-May-31 10:00N 39°57' W 075°08'0 0.0
2018-May-31 09:30N 39°57' W 075°08'0 0.0
2018-May-31 09:00N 39°57' W 075°08'0 0.0
2018-May-31 08:27N 39°57' W 075°08'0 0.0
2018-May-31 08:00N 39°57' W 075°08'0 0.0
2018-May-31 07:27N 39°57' W 075°08'0 0.0
2018-May-31 07:00N 39°57' W 075°08'0 0.0
2018-May-31 06:30N 39°57' W 075°08'0 0.0
2018-May-31 05:57N 39°57' W 075°08'0 0.0
2018-May-31 05:30N 39°57' W 075°08'0 0.0
2018-May-31 05:00N 39°57' W 075°08'0 0.0
2018-May-31 04:30N 39°57' W 075°08'0 0.0
2018-May-31 04:00N 39°57' W 075°08'0 0.0
2018-May-31 03:30N 39°57' W 075°08'0 0.0
2018-May-31 03:00N 39°57' W 075°08'0 0.0
2018-May-31 02:30N 39°57' W 075°08'0 0.0
2018-May-31 02:00N 39°57' W 075°08'0 0.0
2018-May-31 01:30N 39°57' W 075°08'0 0.0
2018-May-31 01:00N 39°57' W 075°08'0 0.0
2018-May-31 00:30N 39°57' W 075°08'0 0.0
2018-May-31 00:00N 39°57' W 075°08'0 0.0
2018-May-30 23:30N 39°57' W 075°08'0 0.0
2018-May-30 23:00N 39°57' W 075°08'0 0.0
2018-May-30 22:30N 39°57' W 075°08'0 0.0
2018-May-30 22:00N 39°57' W 075°08'0 0.0
2018-May-30 21:30N 39°57' W 075°08'0 0.0
2018-May-30 21:00N 39°57' W 075°08'0 0.0
2018-May-30 20:30N 39°57' W 075°08'0 0.0
2018-May-30 20:00N 39°57' W 075°08'0 0.0
2018-May-30 19:30N 39°57' W 075°08'0 0.0
2018-May-30 19:00N 39°57' W 075°08'0 0.0
2018-May-30 18:30N 39°57' W 075°08'0 0.0
2018-May-30 17:54N 39°57' W 075°08'0 0.0
2018-May-30 17:30N 39°57' W 075°08'0 0.0
2018-May-30 17:00N 39°57' W 075°08'0 0.0
2018-May-30 16:30N 39°57' W 075°08'0 0.0
2018-May-30 16:00N 39°57' W 075°08'0 0.0
2018-May-30 15:30N 39°57' W 075°08'0 0.0
2018-May-30 15:00N 39°57' W 075°08'0 0.0
2018-May-30 14:30N 39°57' W 075°08'0 0.0
2018-May-30 14:00N 39°57' W 075°08'0 0.0
2018-May-30 13:30N 39°57' W 075°08'0 0.0
2018-May-30 13:00N 39°57' W 075°08'0 0.0
2018-May-30 12:30N 39°57' W 075°08'0 0.0
2018-May-30 12:00N 39°57' W 075°08'0 0.0
2018-May-30 11:30N 39°57' W 075°08'0 0.0
2018-May-30 11:00N 39°57' W 075°08'0 0.0
2018-May-30 10:24N 39°57' W 075°08'0 0.0
2018-May-30 10:00N 39°57' W 075°08'0 0.0
2018-May-30 09:30N 39°57' W 075°08'0 0.0
2018-May-30 09:00N 39°57' W 075°08'0 0.0
2018-May-30 08:30N 39°57' W 075°08'0 0.0
2018-May-30 08:00N 39°57' W 075°08'0 0.0
2018-May-30 07:30N 39°57' W 075°08'0 0.0
2018-May-30 07:00N 39°57' W 075°08'0 0.0
2018-May-30 06:30N 39°57' W 075°08'0 0.0
2018-May-30 06:00N 39°57' W 075°08'0 0.0
2018-May-30 05:30N 39°57' W 075°08'0 0.0
2018-May-30 05:00N 39°57' W 075°08'0 0.0
2018-May-30 04:30N 39°57' W 075°08'0 0.0
2018-May-30 04:00N 39°57' W 075°08'0 0.0
2018-May-30 03:30N 39°57' W 075°08'0 0.0
2018-May-30 03:00N 39°57' W 075°08'0 0.0
2018-May-30 02:30N 39°57' W 075°08'0 0.0
2018-May-30 02:00N 39°57' W 075°08'0 0.0
2018-May-30 01:30N 39°57' W 075°08'0 0.0
2018-May-30 01:00N 39°57' W 075°08'0 0.0
2018-May-30 00:30N 39°57' W 075°08'0 0.0
2018-May-30 00:00N 39°57' W 075°08'0 0.0
2018-May-29 23:30N 39°57' W 075°08'0 0.0
2018-May-29 23:00N 39°57' W 075°08'0 0.0
2018-May-29 22:30N 39°57' W 075°08'0 0.0
2018-May-29 22:00N 39°57' W 075°08'0 0.0
2018-May-29 21:30N 39°57' W 075°08'0 0.0
2018-May-29 21:00N 39°57' W 075°08'0 0.0
2018-May-29 20:30N 39°57' W 075°08'0 0.0
2018-May-29 20:00N 39°57' W 075°08'0 0.0
2018-May-29 19:30N 39°57' W 075°08'0 0.0
2018-May-29 19:00N 39°57' W 075°08'0 0.0
2018-May-29 18:30N 39°57' W 075°08'0 0.0
2018-May-29 18:00N 39°57' W 075°08'0 0.0
2018-May-29 17:30N 39°57' W 075°08'0 0.0
2018-May-29 17:00N 39°57' W 075°08'0 0.0
2018-May-29 16:30N 39°57' W 075°08'0 0.0
2018-May-29 15:57N 39°57' W 075°08'0 0.0
2018-May-29 15:30N 39°57' W 075°08'0 0.0
2018-May-29 15:00N 39°57' W 075°08'0 0.0
2018-May-29 14:30N 39°57' W 075°08'0 0.0
2018-May-29 14:00N 39°57' W 075°08'0 0.0
2018-May-29 12:39N 39°57' W 075°08'0 0.0
2018-May-29 08:06N 39°57' W 075°08'0 0.0
2018-May-29 08:00N 39°57' W 075°08'0 0.0
2018-May-29 07:30N 39°57' W 075°08'0 0.0
2018-May-29 07:00N 39°57' W 075°08'0 0.0
2018-May-29 06:30N 39°57' W 075°08'0 0.0
2018-May-29 06:00N 39°57' W 075°08'0 0.0
2018-May-29 05:30N 39°57' W 075°08'0 0.0
2018-May-29 04:27N 39°57' W 075°08'0 0.0
2018-May-28 18:33N 39°57' W 075°08'0 0.1
2018-May-28 18:30N 39°57' W 075°08'0 0.0
2018-May-28 18:00N 39°57' W 075°08'0 0.0
2018-May-28 17:30N 39°57' W 075°08'0 0.0
2018-May-28 17:00N 39°57' W 075°08'0 0.0
2018-May-28 16:30N 39°57' W 075°08'0 0.0
2018-May-28 13:57N 39°57' W 075°08'0 0.0
2018-May-28 13:30N 39°57' W 075°08'0 0.0
2018-May-28 13:00N 39°57' W 075°08'0 0.0
2018-May-28 12:30N 39°57' W 075°08'0 0.0
2018-May-28 12:00N 39°57' W 075°08'0 0.0
2018-May-28 11:30N 39°57' W 075°08'0 0.0
2018-May-28 11:00N 39°57' W 075°08'0 0.0
2018-May-28 10:30N 39°57' W 075°08'0 0.0
2018-May-28 10:00N 39°57' W 075°08'0 0.0
2018-May-28 09:30N 39°57' W 075°08'0 0.0
2018-May-28 09:00N 39°57' W 075°08'0 0.0
2018-May-28 08:27N 39°57' W 075°08'0 0.0
2018-May-28 08:00N 39°57' W 075°08'0 0.0
2018-May-28 07:30N 39°57' W 075°08'0 0.0
2018-May-28 07:00N 39°57' W 075°08'0 0.0
2018-May-28 06:30N 39°57' W 075°08'0 0.0
2018-May-28 06:00N 39°57' W 075°08'0 0.0
2018-May-28 05:30N 39°57' W 075°08'0 0.0
2018-May-28 05:00N 39°57' W 075°08'0 0.0
2018-May-28 04:30N 39°57' W 075°08'0 0.0
2018-May-28 03:57N 39°57' W 075°08'0 0.0
2018-May-28 03:30N 39°57' W 075°08'0 0.0
2018-May-28 03:00N 39°57' W 075°08'0 0.0
2018-May-28 02:30N 39°57' W 075°08'0 0.0
2018-May-28 02:00N 39°57' W 075°08'0 0.0
2018-May-28 01:30N 39°57' W 075°08'0 0.0
2018-May-28 01:00N 39°57' W 075°08'0 0.0
2018-May-28 00:27N 39°57' W 075°08'0 0.0
2018-May-28 00:00N 39°57' W 075°08'0 0.0
2018-May-27 23:27N 39°57' W 075°08'0 0.0
2018-May-27 22:54N 39°57' W 075°08'0 0.0
2018-May-27 22:30N 39°57' W 075°08'0 0.0
2018-May-27 22:00N 39°57' W 075°08'0 0.0
2018-May-27 21:30N 39°57' W 075°08'0 0.0
2018-May-27 21:00N 39°57' W 075°08'0 0.0
2018-May-27 20:27N 39°57' W 075°08'0 0.0
2018-May-27 20:00N 39°57' W 075°08'0 0.0
2018-May-27 19:30N 39°57' W 075°08'0 0.0
2018-May-27 19:00N 39°57' W 075°08'0 0.0
2018-May-27 18:30N 39°57' W 075°08'0 0.0
2018-May-27 18:00N 39°57' W 075°08'0 0.0
2018-May-27 17:27N 39°57' W 075°08'0 0.0
2018-May-27 17:00N 39°57' W 075°08'0 0.0
2018-May-27 16:30N 39°57' W 075°08'0 0.0
2018-May-27 16:00N 39°57' W 075°08'0 0.0
2018-May-27 15:30N 39°57' W 075°08'0 0.0
2018-May-27 15:00N 39°57' W 075°08'0 0.0
2018-May-27 14:30N 39°57' W 075°08'0 0.0
2018-May-27 14:00N 39°57' W 075°08'0 0.0
2018-May-27 13:30N 39°57' W 075°08'0 0.0
2018-May-27 13:00N 39°57' W 075°08'0 0.0
2018-May-27 12:30N 39°57' W 075°08'0 0.0
2018-May-27 12:00N 39°57' W 075°08'0 0.0
2018-May-27 11:30N 39°57' W 075°08'0 0.0
2018-May-27 11:00N 39°57' W 075°08'0 0.0
2018-May-27 10:30N 39°57' W 075°08'0 0.0
2018-May-27 10:00N 39°57' W 075°08'0 0.0
2018-May-27 09:30N 39°57' W 075°08'0 0.0
2018-May-27 09:00N 39°57' W 075°08'0 0.0
2018-May-27 08:30N 39°57' W 075°08'0 0.0
2018-May-27 08:00N 39°57' W 075°08'0 0.0
2018-May-27 07:30N 39°57' W 075°08'0 0.0
2018-May-27 07:00N 39°57' W 075°08'0 0.0
2018-May-27 06:30N 39°57' W 075°08'0 0.0
2018-May-27 06:00N 39°57' W 075°08'0 0.0
2018-May-27 05:30N 39°57' W 075°08'0 0.0
2018-May-27 05:00N 39°57' W 075°08'0 0.0
2018-May-27 04:27N 39°57' W 075°08'0 0.0
2018-May-27 04:00N 39°57' W 075°08'0 0.0
2018-May-27 03:30N 39°57' W 075°08'0 0.0
2018-May-27 03:00N 39°57' W 075°08'0 0.0
2018-May-27 02:28N 39°57' W 075°08'0 0.0
2018-May-27 02:01N 39°57' W 075°08'0 0.0
2018-May-27 01:30N 39°57' W 075°08'0 0.0
2018-May-27 01:01N 39°57' W 075°08'0 0.0
2018-May-27 00:30N 39°57' W 075°08'0 0.0
2018-May-26 23:57N 39°57' W 075°08'0 0.0
2018-May-26 23:30N 39°57' W 075°08'0 0.0
2018-May-26 23:01N 39°57' W 075°08'0 0.0
2018-May-26 22:28N 39°57' W 075°08'0 0.0
2018-May-26 21:58N 39°57' W 075°08'0 0.0
2018-May-26 21:28N 39°57' W 075°08'0 0.0
2018-May-26 21:00N 39°57' W 075°08'0 0.0
2018-May-26 20:31N 39°57' W 075°08'0 0.0
2018-May-26 20:01N 39°57' W 075°08'0 0.0
2018-May-26 19:31N 39°57' W 075°08'0 0.0
2018-May-26 19:01N 39°57' W 075°08'0 0.0
2018-May-26 18:31N 39°57' W 075°08'0 0.0
2018-May-26 17:58N 39°57' W 075°08'0 0.0
2018-May-26 17:28N 39°57' W 075°08'0 0.0
2018-May-26 16:58N 39°57' W 075°08'0 0.0
2018-May-26 16:28N 39°57' W 075°08'0 0.0
2018-May-26 15:58N 39°57' W 075°08'0 0.0
2018-May-26 15:28N 39°57' W 075°08'0 0.0
2018-May-26 14:58N 39°57' W 075°08'0 0.0
2018-May-26 14:28N 39°57' W 075°08'0 0.0
2018-May-26 13:58N 39°57' W 075°08'0 0.0
2018-May-26 13:28N 39°57' W 075°08'0 0.0
2018-May-26 12:58N 39°57' W 075°08'0 0.0
2018-May-26 12:28N 39°57' W 075°08'0 0.0
2018-May-26 11:58N 39°57' W 075°08'0 0.0
2018-May-26 11:28N 39°57' W 075°08'0 0.0
2018-May-26 10:58N 39°57' W 075°08'0 0.0
2018-May-26 10:28N 39°57' W 075°08'0 0.0
2018-May-26 09:58N 39°57' W 075°08'0 0.0
2018-May-26 09:28N 39°57' W 075°08'0 0.0
2018-May-26 08:58N 39°57' W 075°08'0 0.0
2018-May-26 08:28N 39°57' W 075°08'0 0.0
2018-May-26 07:58N 39°57' W 075°08'0 0.0
2018-May-26 07:28N 39°57' W 075°08'0 0.0
2018-May-26 06:58N 39°57' W 075°08'0 0.0
2018-May-26 06:28N 39°57' W 075°08'0 0.0
2018-May-26 05:28N 39°57' W 075°08'0 0.0
2018-May-26 04:58N 39°57' W 075°08'0 0.0
2018-May-26 04:28N 39°57' W 075°08'0 0.0
2018-May-26 03:58N 39°57' W 075°08'0 0.0
2018-May-26 03:25N 39°57' W 075°08'0 0.0
2018-May-26 02:58N 39°57' W 075°08'0 0.0
2018-May-26 02:28N 39°57' W 075°08'0 0.0
2018-May-26 01:58N 39°57' W 075°08'0 0.0
2018-May-26 01:28N 39°57' W 075°08'0 0.0
2018-May-26 00:58N 39°57' W 075°08'0 0.0
2018-May-26 00:28N 39°57' W 075°08'0 0.0
2018-May-25 23:58N 39°57' W 075°08'0 0.0
2018-May-25 23:28N 39°57' W 075°08'0 0.0
2018-May-25 22:58N 39°57' W 075°08'0 0.0
2018-May-25 22:28N 39°57' W 075°08'0 0.0
2018-May-25 21:58N 39°57' W 075°08'0 0.0
2018-May-25 21:28N 39°57' W 075°08'0 0.0
2018-May-25 20:58N 39°57' W 075°08'0 0.0
2018-May-25 20:28N 39°57' W 075°08'0 0.0
2018-May-25 19:58N 39°57' W 075°08'0 0.0
2018-May-25 19:28N 39°57' W 075°08'0 0.0
2018-May-25 18:58N 39°57' W 075°08'0 0.0
2018-May-25 18:28N 39°57' W 075°08'0 0.0
2018-May-25 17:58N 39°57' W 075°08'0 0.0
2018-May-25 17:28N 39°57' W 075°08'0 0.0
2018-May-25 16:58N 39°57' W 075°08'0 0.0
2018-May-25 16:28N 39°57' W 075°08'0 0.0
2018-May-25 15:58N 39°57' W 075°08'3 7.4
2018-May-25 15:30N 39°54' W 075°08'5 9.2
2018-May-25 15:00N 39°52' W 075°13'5 9.9
2018-May-25 14:30N 39°51' W 075°20'510.5
2018-May-25 14:00N 39°48' W 075°25'510.1
2018-May-25 13:30N 39°44' W 075°29'510.8
2018-May-25 13:00N 39°39' W 075°33'5 9.5
2018-May-25 12:30N 39°35' W 075°33'4 8.9
2018-May-25 12:00N 39°33' W 075°39'510.2
2018-May-25 11:30N 39°32' W 075°45'3 5.1
2018-May-25 10:58N 39°32' W 075°49'0 0.0
2018-May-25 10:22N 39°32' W 075°49'0 0.0
2018-May-25 09:55N 39°32' W 075°49'0 0.0
2018-May-25 09:28N 39°32' W 075°49'0 0.0
2018-May-25 08:58N 39°32' W 075°49'0 0.0
2018-May-25 08:25N 39°32' W 075°49'0 0.0
2018-May-25 07:58N 39°32' W 075°49'0 0.0
2018-May-25 07:19N 39°32' W 075°49'0 0.0
2018-May-25 06:58N 39°32' W 075°49'0 0.0
2018-May-25 06:25N 39°32' W 075°49'0 0.0
2018-May-25 05:58N 39°32' W 075°49'0 0.0
2018-May-25 05:22N 39°32' W 075°49'0 0.0
2018-May-25 04:58N 39°32' W 075°49'0 0.0
2018-May-25 04:25N 39°32' W 075°49'0 0.0
2018-May-25 03:46N 39°32' W 075°49'0 0.0
2018-May-25 03:25N 39°32' W 075°49'0 0.0
2018-May-25 02:58N 39°32' W 075°49'0 0.0
2018-May-25 02:28N 39°32' W 075°49'0 0.0
2018-May-25 01:58N 39°32' W 075°49'0 0.0
2018-May-25 01:28N 39°32' W 075°49'0 0.0
2018-May-25 00:55N 39°32' W 075°49'0 0.0
2018-May-25 00:28N 39°32' W 075°49'0 0.0
2018-May-24 23:58N 39°32' W 075°49'0 0.0
2018-May-24 23:22N 39°32' W 075°49'0 0.0
2018-May-24 22:58N 39°32' W 075°49'0 0.0
2018-May-24 22:22N 39°32' W 075°49'0 0.0
2018-May-24 21:58N 39°32' W 075°49'0 0.0
2018-May-24 21:25N 39°32' W 075°49'0 0.0
2018-May-24 20:58N 39°32' W 075°49'0 0.0
2018-May-24 20:28N 39°32' W 075°49'0 0.0
2018-May-24 19:55N 39°32' W 075°49'0 0.0
2018-May-24 19:28N 39°32' W 075°49'0 0.0
2018-May-24 18:58N 39°32' W 075°49'2 3.3
2018-May-24 18:30N 39°32' W 075°51'48 5.0
2018-May-24 08:51N 38°47' W 076°13'0 0.0
2018-May-24 08:27N 38°47' W 076°13'57 1.3
2018-May-22 12:27N 37°50' W 076°03'  

Dump ship's entire track history